createdAt,value
2018-07-12T00:01:22.208Z,45.20
2018-07-12T00:03:49.408Z,47.77
2018-07-12T00:06:16.664Z,45.63
2018-07-12T00:08:43.878Z,38.57
2018-07-12T00:11:11.110Z,43.83
2018-07-12T00:13:38.310Z,37.13
2018-07-12T00:16:05.556Z,35.63
2018-07-12T00:18:32.750Z,38.50
2018-07-12T00:21:00.026Z,33.13
2018-07-12T00:23:27.292Z,32.60
2018-07-12T00:25:54.523Z,35.07
2018-07-12T00:28:21.718Z,42.03
2018-07-12T00:30:48.959Z,42.07
2018-07-12T00:33:16.173Z,37.57
2018-07-12T00:35:43.410Z,42.80
2018-07-12T00:38:10.603Z,51.70
2018-07-12T00:40:38.009Z,47.17
2018-07-12T00:43:05.221Z,41.57
2018-07-12T00:45:32.485Z,44.50
2018-07-12T00:47:59.673Z,47.90
2018-07-12T00:50:26.901Z,53.57
2018-07-12T00:52:54.096Z,50.13
2018-07-12T00:55:21.347Z,53.07
2018-07-12T00:57:48.539Z,53.90
2018-07-12T01:00:15.782Z,57.70
2018-07-12T01:02:42.978Z,56.17
2018-07-12T01:05:10.198Z,60.97
2018-07-12T01:07:37.402Z,60.40
2018-07-12T01:10:04.704Z,57.00
2018-07-12T01:12:31.903Z,57.87
2018-07-12T01:14:59.190Z,58.40
2018-07-12T01:17:26.526Z,59.27
2018-07-12T01:19:53.802Z,63.67
2018-07-12T01:22:20.999Z,63.27
2018-07-12T01:24:48.189Z,56.83
2018-07-12T01:27:15.433Z,60.40
2018-07-12T01:29:42.622Z,62.53
2018-07-12T01:32:09.863Z,62.47
2018-07-12T01:34:37.056Z,59.27
2018-07-12T01:37:04.314Z,60.90
2018-07-12T01:39:31.515Z,58.97
2018-07-12T01:41:58.735Z,56.03
2018-07-12T01:44:25.972Z,57.30
2018-07-12T01:46:53.207Z,56.93
2018-07-12T01:49:20.417Z,59.67
2018-07-12T01:51:47.667Z,56.20
2018-07-12T01:54:14.850Z,55.43
2018-07-12T01:56:42.074Z,57.70
2018-07-12T01:59:09.275Z,52.57
2018-07-12T02:01:36.653Z,60.07
2018-07-12T02:04:03.909Z,57.97
2018-07-12T02:06:31.139Z,55.40
2018-07-12T02:08:58.322Z,58.47
2018-07-12T02:11:25.746Z,59.57
2018-07-12T02:13:53.005Z,56.27
2018-07-12T02:16:20.236Z,58.13
2018-07-12T02:18:47.433Z,56.33
2018-07-12T02:21:14.667Z,54.40
2018-07-12T02:23:41.858Z,50.77
2018-07-12T02:26:09.103Z,50.97
2018-07-12T02:28:36.303Z,50.17
2018-07-12T02:31:03.558Z,52.20
2018-07-12T02:33:30.825Z,51.07
2018-07-12T02:35:58.095Z,49.50
2018-07-12T02:38:25.287Z,45.20
2018-07-12T02:40:52.548Z,44.83
2018-07-12T02:43:19.851Z,43.90
2018-07-12T02:45:47.062Z,45.47
2018-07-12T02:48:14.367Z,43.40
2018-07-12T02:50:41.568Z,44.83
2018-07-12T02:53:08.875Z,46.97
2018-07-12T02:55:36.088Z,49.63
2018-07-12T02:58:03.306Z,50.77
2018-07-12T03:00:30.503Z,49.93
2018-07-12T03:02:57.744Z,44.70
2018-07-12T03:05:24.935Z,48.53
2018-07-12T03:07:52.175Z,48.40
2018-07-12T03:10:19.378Z,46.77
2018-07-12T03:12:46.594Z,46.00
2018-07-12T03:15:13.806Z,46.80
2018-07-12T03:17:41.168Z,47.63
2018-07-12T03:20:08.380Z,48.37
2018-07-12T03:22:35.627Z,45.00
2018-07-12T03:25:02.825Z,45.87
2018-07-12T03:27:30.087Z,45.33
2018-07-12T03:29:57.282Z,46.67
2018-07-12T03:32:24.510Z,47.93
2018-07-12T03:34:51.695Z,44.10
2018-07-12T03:37:18.953Z,42.23
2018-07-12T03:39:46.165Z,43.03
2018-07-12T03:42:13.400Z,45.17
2018-07-12T03:44:40.657Z,42.67
2018-07-12T03:47:07.901Z,43.87
2018-07-12T03:49:35.095Z,44.13
2018-07-12T03:52:02.323Z,45.40
2018-07-12T03:54:29.525Z,49.93
2018-07-12T03:56:56.791Z,47.67
2018-07-12T03:59:23.988Z,48.73
2018-07-12T04:01:51.246Z,48.20
2018-07-12T04:04:18.509Z,45.87
2018-07-12T04:06:45.700Z,45.10
2018-07-12T04:09:12.958Z,40.60
2018-07-12T04:11:40.216Z,38.57
2018-07-12T04:14:07.447Z,39.87
2018-07-12T04:16:34.664Z,38.43
2018-07-12T04:19:01.913Z,38.30
2018-07-12T04:21:29.145Z,38.90
2018-07-12T04:23:56.398Z,39.73
2018-07-12T04:26:23.590Z,35.50
2018-07-12T04:28:50.828Z,39.83
2018-07-12T04:31:18.022Z,36.37
2018-07-12T04:33:45.260Z,36.10
2018-07-12T04:36:12.476Z,42.57
2018-07-12T04:38:39.743Z,39.90
2018-07-12T04:41:06.935Z,46.23
2018-07-12T04:43:34.171Z,45.57
2018-07-12T04:46:01.388Z,44.07
2018-07-12T04:48:28.631Z,45.97
2018-07-12T04:50:55.826Z,58.60
2018-07-12T04:53:23.356Z,55.20
2018-07-12T04:55:50.558Z,51.37
2018-07-12T04:58:17.884Z,50.73
2018-07-12T05:00:45.047Z,49.00
2018-07-12T05:03:12.276Z,50.40
2018-07-12T05:05:39.488Z,46.03
2018-07-12T05:08:09.809Z,47.53
2018-07-12T05:10:37.833Z,42.00
2018-07-12T05:13:05.119Z,45.80
2018-07-12T05:15:32.418Z,43.90
2018-07-12T05:17:59.655Z,41.83
2018-07-12T05:20:26.910Z,39.43
2018-07-12T05:22:54.168Z,39.07
2018-07-12T05:25:21.384Z,39.70
2018-07-12T05:27:48.582Z,39.30
2018-07-12T05:30:15.827Z,37.50
2018-07-12T05:32:43.019Z,39.97
2018-07-12T05:35:10.243Z,35.37
2018-07-12T05:37:38.611Z,34.80
2018-07-12T05:40:07.238Z,38.10
2018-07-12T05:42:41.896Z,37.37
2018-07-12T05:45:10.194Z,32.90
2018-07-12T05:47:38.588Z,32.03
2018-07-12T05:50:06.966Z,31.60
2018-07-12T05:52:35.234Z,31.23
2018-07-12T05:55:03.583Z,29.57
2018-07-12T05:57:31.979Z,32.40
2018-07-12T06:00:01.040Z,27.80
2018-07-12T06:02:29.318Z,27.67
2018-07-12T06:04:57.760Z,31.77
2018-07-12T06:07:30.284Z,31.33
2018-07-12T06:09:58.676Z,31.97
2018-07-12T06:12:27.134Z,27.63
2018-07-12T06:14:55.625Z,27.73
2018-07-12T06:17:24.001Z,28.37
2018-07-12T06:19:52.439Z,29.17
2018-07-12T06:22:20.806Z,28.93
2018-07-12T06:24:49.228Z,28.97
2018-07-12T06:27:17.647Z,28.20
2018-07-12T06:29:45.992Z,31.67
2018-07-12T06:32:16.825Z,30.27
2018-07-12T06:34:45.190Z,31.20
2018-07-12T06:37:13.538Z,26.30
2018-07-12T06:39:41.807Z,28.80
2018-07-12T06:42:10.091Z,27.97
2018-07-12T06:44:38.505Z,24.83
2018-07-12T06:47:06.917Z,23.50
2018-07-12T06:49:35.484Z,23.50
2018-07-12T06:52:03.877Z,24.77
2018-07-12T06:54:32.229Z,24.23
2018-07-12T06:57:00.507Z,23.87
2018-07-12T06:59:28.940Z,26.67
2018-07-12T07:01:57.222Z,21.80
2018-07-12T07:04:25.700Z,24.23
2018-07-12T07:06:53.980Z,23.23
2018-07-12T07:09:22.378Z,22.37
2018-07-12T07:11:50.896Z,20.90
2018-07-12T07:14:19.334Z,23.97
2018-07-12T07:16:47.654Z,21.63
2018-07-12T07:19:15.967Z,20.73
2018-07-12T07:21:44.259Z,19.40
2018-07-12T07:24:12.603Z,21.27
2018-07-12T07:26:40.950Z,19.63
2018-07-12T07:29:09.289Z,19.83
2018-07-12T07:31:37.559Z,20.97
2018-07-12T07:34:05.874Z,20.97
2018-07-12T07:36:34.207Z,21.77
2018-07-12T07:39:02.521Z,24.60
2018-07-12T07:41:30.882Z,22.17
2018-07-12T07:43:59.158Z,20.13
2018-07-12T07:46:27.470Z,21.23
2018-07-12T07:48:55.747Z,22.93
2018-07-12T07:51:24.155Z,22.23
2018-07-12T07:53:52.435Z,21.23
2018-07-12T07:56:20.796Z,20.90
2018-07-12T07:58:49.077Z,21.27
2018-07-12T08:01:17.478Z,21.63
2018-07-12T08:03:45.796Z,22.30
2018-07-12T08:06:14.174Z,20.73
2018-07-12T08:08:42.511Z,19.27
2018-07-12T08:11:10.903Z,20.27
2018-07-12T08:13:39.203Z,18.17
2018-07-12T08:16:07.576Z,17.40
2018-07-12T08:18:35.810Z,17.47
2018-07-12T08:21:06.059Z,19.07
2018-07-12T08:23:34.372Z,15.97
2018-07-12T08:26:02.705Z,17.10
2018-07-12T08:28:31.100Z,17.70
2018-07-12T08:30:59.403Z,15.30
2018-07-12T08:33:27.761Z,14.83
2018-07-12T08:35:56.017Z,17.80
2018-07-12T08:38:24.297Z,16.87
2018-07-12T08:40:52.739Z,16.23
2018-07-12T08:43:21.084Z,16.47
2018-07-12T08:45:49.370Z,17.97
2018-07-12T08:48:17.699Z,19.57
2018-07-12T08:50:46.035Z,17.80
2018-07-12T08:53:14.436Z,17.87
2018-07-12T08:55:43.808Z,17.13
2018-07-12T08:58:12.171Z,15.93
2018-07-12T09:00:42.242Z,15.50
2018-07-12T09:03:13.226Z,15.90
2018-07-12T09:05:41.770Z,15.40
2018-07-12T09:08:10.190Z,15.37
2018-07-12T09:10:38.471Z,16.20
2018-07-12T09:13:06.907Z,15.47
2018-07-12T09:15:35.310Z,16.07
2018-07-12T09:18:03.618Z,17.90
2018-07-12T09:20:31.967Z,16.23
2018-07-12T09:23:00.337Z,16.10
2018-07-12T09:25:29.483Z,15.48
2018-07-12T09:27:57.791Z,17.17
2018-07-12T09:30:26.155Z,16.67
2018-07-12T09:32:54.526Z,17.57
2018-07-12T09:35:22.915Z,17.03
2018-07-12T09:37:51.399Z,16.27
2018-07-12T09:40:19.678Z,18.17
2018-07-12T09:42:47.987Z,19.27
2018-07-12T09:45:16.335Z,20.93
2018-07-12T09:47:44.740Z,20.13
2018-07-12T09:50:13.067Z,20.37
2018-07-12T09:52:41.382Z,18.47
2018-07-12T09:55:09.662Z,19.40
2018-07-12T09:57:49.405Z,17.67
2018-07-12T10:00:17.690Z,17.53
2018-07-12T10:02:51.413Z,16.87
2018-07-12T10:05:25.032Z,18.25
2018-07-12T10:07:58.937Z,15.57
2018-07-12T10:10:30.122Z,16.90
2018-07-12T10:13:03.747Z,19.30
2018-07-12T10:15:37.455Z,19.37
2018-07-12T10:18:11.035Z,18.30
2018-07-12T10:20:38.357Z,17.87
2018-07-12T10:23:06.674Z,18.10
2018-07-12T10:25:34.960Z,17.25
2018-07-12T10:28:03.320Z,15.30
2018-07-12T10:30:31.649Z,16.60
2018-07-12T10:32:59.947Z,15.28
2018-07-12T10:35:28.233Z,16.52
2018-07-12T10:37:56.838Z,16.65
2018-07-12T10:40:25.100Z,19.00
2018-07-12T10:42:53.404Z,18.02
2018-07-12T10:45:21.939Z,18.10
2018-07-12T10:47:50.245Z,18.85
2018-07-12T10:50:18.682Z,18.15
2018-07-12T10:52:47.034Z,17.05
2018-07-12T10:55:15.308Z,17.35
2018-07-12T10:57:43.651Z,16.32
2018-07-12T11:00:12.074Z,16.30
2018-07-12T11:02:40.372Z,18.10
2018-07-12T11:05:08.714Z,15.95
2018-07-12T11:07:37.023Z,15.88
2018-07-12T11:10:05.501Z,14.65
2018-07-12T11:12:34.175Z,19.65
2018-07-12T11:15:02.456Z,17.45
2018-07-12T11:17:30.936Z,24.40
2018-07-12T11:19:59.772Z,14.43
2018-07-12T11:22:28.266Z,15.63
2018-07-12T11:24:56.558Z,14.98
2018-07-12T11:27:26.132Z,13.55
2018-07-12T11:29:56.678Z,13.35
2018-07-12T11:32:25.030Z,12.60
2018-07-12T11:34:53.332Z,12.15
2018-07-12T11:37:24.937Z,11.65
2018-07-12T11:39:53.384Z,12.37
2018-07-12T11:42:21.711Z,11.18
2018-07-12T11:44:50.311Z,10.65
2018-07-12T11:47:19.038Z,10.58
2018-07-12T11:49:47.485Z,10.60
2018-07-12T11:52:15.888Z,10.28
2018-07-12T11:54:44.147Z,9.53
2018-07-12T11:57:13.247Z,8.58
2018-07-12T11:59:41.539Z,9.33
2018-07-12T12:02:09.869Z,10.18
2018-07-12T12:04:38.217Z,7.37
2018-07-12T12:07:06.543Z,7.72
2018-07-12T12:09:35.145Z,10.60
2018-07-12T12:12:03.575Z,9.25
2018-07-12T12:14:32.143Z,8.73
2018-07-12T12:17:00.605Z,9.98
2018-07-12T12:19:29.103Z,9.35
2018-07-12T12:21:59.075Z,9.70
2018-07-12T12:24:27.419Z,9.58
2018-07-12T12:26:55.790Z,7.62
2018-07-12T12:29:24.279Z,9.10
2018-07-12T12:31:52.619Z,8.03
2018-07-12T12:34:20.965Z,9.28
2018-07-12T12:36:49.252Z,8.18
2018-07-12T12:39:17.571Z,8.95
2018-07-12T12:41:45.957Z,8.48
2018-07-12T12:44:14.271Z,8.23
2018-07-12T12:46:42.641Z,8.05
2018-07-12T12:49:11.141Z,7.70
2018-07-12T12:51:39.713Z,12.63
2018-07-12T12:54:08.104Z,9.25
2018-07-12T12:56:36.763Z,7.62
2018-07-12T12:59:05.126Z,8.50
2018-07-12T13:01:33.446Z,8.58
2018-07-12T13:04:01.775Z,8.65
2018-07-12T13:06:30.079Z,8.15
2018-07-12T13:08:58.508Z,7.75
2018-07-12T13:11:26.808Z,8.05
2018-07-12T13:13:55.146Z,9.28
2018-07-12T13:16:23.478Z,7.20
2018-07-12T13:18:51.766Z,8.18
2018-07-12T13:21:20.126Z,7.83
2018-07-12T13:23:48.446Z,7.15
2018-07-12T13:26:16.786Z,9.45
2018-07-12T13:28:45.075Z,8.73
2018-07-12T13:31:13.438Z,10.20
2018-07-12T13:33:41.730Z,11.05
2018-07-12T13:36:10.000Z,6.35
2018-07-12T13:38:38.511Z,6.75
2018-07-12T13:41:07.198Z,9.93
2018-07-12T13:43:35.602Z,6.75
2018-07-12T13:46:03.904Z,9.10
2018-07-12T13:48:32.295Z,6.78
2018-07-12T13:51:00.639Z,6.62
2018-07-12T13:53:29.037Z,7.08
2018-07-12T13:55:57.384Z,6.22
2018-07-12T13:58:25.711Z,7.12
2018-07-12T14:00:54.054Z,5.78
2018-07-12T14:03:22.354Z,6.55
2018-07-12T14:05:50.650Z,6.12
2018-07-12T14:08:18.959Z,6.33
2018-07-12T14:10:47.379Z,6.50
2018-07-12T14:13:15.663Z,7.20
2018-07-12T14:15:44.046Z,9.40
2018-07-12T14:18:12.822Z,8.55
2018-07-12T14:20:42.923Z,6.83
2018-07-12T14:23:11.687Z,7.67
2018-07-12T14:25:40.004Z,6.78
2018-07-12T14:28:08.450Z,9.20
2018-07-12T14:30:38.817Z,7.55
2018-07-12T14:33:10.815Z,8.25
2018-07-12T14:35:39.404Z,8.08
2018-07-12T14:38:08.850Z,10.05
2018-07-12T14:40:37.586Z,13.15
2018-07-12T14:43:06.007Z,9.83
2018-07-12T14:45:34.364Z,8.70
2018-07-12T14:48:02.677Z,9.40
2018-07-12T14:50:31.054Z,8.88
2018-07-12T14:52:59.314Z,10.98
2018-07-12T14:55:27.729Z,11.25
2018-07-12T14:57:56.108Z,8.18
2018-07-12T15:00:24.531Z,8.55
2018-07-12T15:02:52.916Z,9.08
2018-07-12T15:05:21.251Z,10.48
2018-07-12T15:07:49.638Z,12.23
2018-07-12T15:10:18.011Z,10.60
2018-07-12T15:12:46.321Z,10.65
2018-07-12T15:15:14.652Z,14.50
2018-07-12T15:17:42.911Z,18.52
2018-07-12T15:20:11.254Z,15.75
2018-07-12T15:22:39.770Z,13.28
2018-07-12T15:25:08.166Z,14.58
2018-07-12T15:27:36.445Z,13.38
2018-07-12T15:30:04.814Z,15.98
2018-07-12T15:32:33.111Z,16.20
2018-07-12T15:35:01.424Z,14.83
2018-07-12T15:37:29.727Z,19.42
2018-07-12T15:39:58.044Z,16.20
2018-07-12T15:42:26.379Z,13.57
2018-07-12T15:44:54.684Z,10.55
2018-07-12T15:47:22.997Z,6.07
2018-07-12T15:49:51.406Z,5.77
2018-07-12T15:52:21.815Z,6.10
2018-07-12T15:54:50.268Z,9.70
2018-07-12T15:57:18.909Z,6.90
2018-07-12T15:59:47.265Z,6.50
2018-07-12T16:02:15.770Z,6.83
2018-07-12T16:04:44.124Z,6.62
2018-07-12T16:07:12.565Z,7.80
2018-07-12T16:09:40.936Z,7.33
2018-07-12T16:12:09.275Z,7.03
2018-07-12T16:14:38.239Z,7.30
2018-07-12T16:17:06.936Z,6.67
2018-07-12T16:19:35.250Z,10.32
2018-07-12T16:22:04.075Z,12.10
2018-07-12T16:24:32.422Z,9.73
2018-07-12T16:27:00.947Z,9.47
2018-07-12T16:29:29.314Z,6.92
2018-07-12T16:31:57.819Z,7.25
2018-07-12T16:34:26.174Z,6.90
2018-07-12T16:36:54.487Z,7.58
2018-07-12T16:39:22.809Z,7.28
2018-07-12T16:41:51.311Z,8.20
2018-07-12T16:44:19.815Z,7.80
2018-07-12T16:46:48.204Z,8.30
2018-07-12T16:49:22.766Z,7.87
2018-07-12T16:51:51.087Z,8.33
2018-07-12T16:54:19.674Z,8.20
2018-07-12T16:56:47.985Z,9.07
2018-07-12T16:59:16.396Z,10.20
2018-07-12T17:01:44.846Z,15.58
2018-07-12T17:04:13.155Z,15.38
2018-07-12T17:06:41.470Z,27.57
2018-07-12T17:09:09.746Z,21.37
2018-07-12T17:11:38.247Z,18.20
2018-07-12T17:14:06.637Z,21.10
2018-07-12T17:16:34.928Z,20.57
2018-07-12T17:19:03.259Z,20.33
2018-07-12T17:21:32.655Z,18.93
2018-07-12T17:24:00.932Z,20.77
2018-07-12T17:26:29.820Z,21.77
2018-07-12T17:28:59.126Z,20.53
2018-07-12T17:31:27.487Z,16.83
2018-07-12T17:33:55.842Z,17.93
2018-07-12T17:36:24.290Z,17.95
2018-07-12T17:38:52.628Z,19.33
2018-07-12T17:41:20.947Z,18.47
2018-07-12T17:43:49.496Z,20.47
2018-07-12T17:46:17.923Z,21.33
2018-07-12T17:48:46.424Z,18.80
2018-07-12T17:51:14.840Z,18.67
2018-07-12T17:53:43.402Z,21.37
2018-07-12T17:56:11.729Z,19.83
2018-07-12T17:58:40.100Z,19.07
2018-07-12T18:01:08.600Z,16.30
2018-07-12T18:03:36.959Z,17.87
2018-07-12T18:06:05.255Z,18.10
2018-07-12T18:08:33.663Z,16.73
2018-07-12T18:11:02.321Z,18.25
2018-07-12T18:13:30.821Z,17.05
2018-07-12T18:15:59.425Z,19.05
2018-07-12T18:18:28.029Z,19.63
2018-07-12T18:20:56.483Z,21.75
2018-07-12T18:23:24.853Z,23.10
2018-07-12T18:25:58.918Z,22.17
2018-07-12T18:28:27.844Z,22.07
2018-07-12T18:30:56.928Z,19.97
2018-07-12T18:33:25.284Z,11.90
2018-07-12T18:35:53.757Z,10.00
2018-07-12T18:38:22.237Z,11.22
2018-07-12T18:40:50.539Z,9.83
2018-07-12T18:43:18.939Z,9.43
2018-07-12T18:45:47.482Z,9.83
2018-07-12T18:48:15.774Z,11.27
2018-07-12T18:50:44.074Z,10.97
2018-07-12T18:53:12.795Z,10.58
2018-07-12T18:55:41.095Z,9.30
2018-07-12T18:58:09.786Z,9.97
2018-07-12T19:00:38.340Z,11.03
2018-07-12T19:03:06.686Z,10.33
2018-07-12T19:05:35.281Z,9.90
2018-07-12T19:08:03.771Z,9.97
2018-07-12T19:10:32.122Z,11.80
2018-07-12T19:13:00.518Z,9.33
2018-07-12T19:15:29.172Z,10.17
2018-07-12T19:17:57.830Z,9.70
2018-07-12T19:20:26.178Z,9.77
2018-07-12T19:22:54.532Z,9.30
2018-07-12T19:25:22.854Z,9.30
2018-07-12T19:27:51.534Z,9.67
2018-07-12T19:30:19.948Z,9.47
2018-07-12T19:32:48.263Z,10.90
2018-07-12T19:35:16.569Z,10.33
2018-07-12T19:37:45.553Z,11.33
2018-07-12T19:40:13.937Z,12.17
2018-07-12T19:42:42.199Z,11.70
2018-07-12T19:45:10.505Z,10.90
2018-07-12T19:47:38.788Z,10.93
2018-07-12T19:50:07.166Z,11.20
2018-07-12T19:52:35.462Z,12.67
2018-07-12T19:55:03.905Z,13.17
2018-07-12T19:57:32.202Z,13.50
2018-07-12T20:00:00.505Z,13.87
2018-07-12T20:02:28.810Z,15.07
2018-07-12T20:04:57.138Z,15.73
2018-07-12T20:07:25.568Z,17.40
2018-07-12T20:09:53.913Z,16.03
2018-07-12T20:12:22.373Z,16.90
2018-07-12T20:14:50.755Z,18.17
2018-07-12T20:17:19.031Z,17.57
2018-07-12T20:19:48.543Z,16.90
2018-07-12T20:22:16.983Z,15.60
2018-07-12T20:24:45.491Z,15.23
2018-07-12T20:27:16.100Z,15.67
2018-07-12T20:29:44.498Z,16.73
2018-07-12T20:32:12.770Z,17.17
2018-07-12T20:34:41.183Z,17.27
2018-07-12T20:37:09.475Z,16.97
2018-07-12T20:39:38.012Z,15.20
2018-07-12T20:42:06.428Z,15.53
2018-07-12T20:44:34.762Z,16.50
2018-07-12T20:47:03.106Z,16.03
2018-07-12T20:49:31.986Z,17.07
2018-07-12T20:52:00.271Z,16.90
2018-07-12T20:54:28.646Z,17.20
2018-07-12T20:56:56.943Z,17.03
2018-07-12T20:59:25.471Z,16.43
2018-07-12T21:01:53.751Z,16.90
2018-07-12T21:04:22.055Z,16.40
2018-07-12T21:06:50.356Z,16.23
2018-07-12T21:09:18.774Z,16.13
2018-07-12T21:11:47.050Z,17.53
2018-07-12T21:14:15.490Z,17.50
2018-07-12T21:16:43.777Z,17.17
2018-07-12T21:19:12.090Z,18.00
2018-07-12T21:21:40.380Z,17.03
2018-07-12T21:24:08.674Z,17.33
2018-07-12T21:26:36.979Z,17.87
2018-07-12T21:29:05.343Z,18.40
2018-07-12T21:31:33.966Z,17.20
2018-07-12T21:34:02.359Z,17.63
2018-07-12T21:36:30.723Z,18.27
2018-07-12T21:38:59.087Z,18.20
2018-07-12T21:41:27.489Z,18.57
2018-07-12T21:43:55.812Z,18.90
2018-07-12T21:46:24.107Z,19.43
2018-07-12T21:48:52.387Z,19.70
2018-07-12T21:51:20.763Z,18.30
2018-07-12T21:53:49.113Z,19.17
2018-07-12T21:56:17.447Z,20.67
2018-07-12T21:58:45.707Z,19.60
2018-07-12T22:01:14.107Z,20.73
2018-07-12T22:03:42.378Z,21.30
2018-07-12T22:06:10.699Z,21.10
2018-07-12T22:08:39.002Z,21.43
2018-07-12T22:11:07.445Z,21.40
2018-07-12T22:13:36.978Z,21.37
2018-07-12T22:16:05.330Z,19.90
2018-07-12T22:18:33.605Z,20.87
2018-07-12T22:21:02.013Z,18.73
2018-07-12T22:23:30.338Z,21.03
2018-07-12T22:25:58.986Z,22.23
2018-07-12T22:28:27.337Z,21.13
2018-07-12T22:30:55.636Z,22.07
2018-07-12T22:33:23.944Z,20.87
2018-07-12T22:35:52.327Z,22.13
2018-07-12T22:38:20.593Z,21.47
2018-07-12T22:40:48.890Z,24.07
2018-07-12T22:43:17.166Z,20.67
2018-07-12T22:45:45.707Z,22.23
2018-07-12T22:48:14.108Z,20.40
2018-07-12T22:50:42.382Z,21.10
2018-07-12T22:53:10.720Z,21.53
2018-07-12T22:55:40.414Z,21.33
2018-07-12T22:58:08.807Z,20.77
2018-07-12T23:00:37.130Z,19.67
2018-07-12T23:03:05.525Z,20.80
2018-07-12T23:05:34.598Z,20.63
2018-07-12T23:08:02.962Z,21.43
2018-07-12T23:10:31.359Z,20.97
2018-07-12T23:13:00.151Z,21.13
2018-07-12T23:15:28.474Z,20.77
2018-07-12T23:17:56.787Z,20.90
2018-07-12T23:20:25.125Z,21.30
2018-07-12T23:22:53.754Z,21.40
2018-07-12T23:25:22.144Z,22.57
2018-07-12T23:27:50.456Z,21.97
2018-07-12T23:30:18.795Z,20.83
2018-07-12T23:32:47.118Z,21.47
2018-07-12T23:35:15.435Z,20.87
2018-07-12T23:37:43.775Z,21.70
2018-07-12T23:40:12.074Z,22.47
2018-07-12T23:42:40.417Z,22.13
2018-07-12T23:45:08.739Z,21.60
2018-07-12T23:47:37.070Z,21.67
2018-07-12T23:50:05.387Z,21.27
2018-07-12T23:52:33.779Z,21.47
2018-07-12T23:55:02.064Z,21.97
2018-07-12T23:57:30.561Z,23.67
2018-07-12T23:59:58.871Z,23.27
